sensor_id;sensor_type;location;lat;lon;timestamp;P1;durP1;ratioP1;P2;durP2;ratioP2
7231;SDS011;3657;49.630;11.018;2023-09-12T00:00:07;30.73;;;29.23;;
7231;SDS011;3657;49.630;11.018;2023-09-12T00:02:36;30.17;;;28.63;;
7231;SDS011;3657;49.630;11.018;2023-09-12T00:05:03;30.13;;;28.87;;
7231;SDS011;3657;49.630;11.018;2023-09-12T00:07:30;31.27;;;29.70;;
7231;SDS011;3657;49.630;11.018;2023-09-12T00:09:57;32.57;;;31.07;;
7231;SDS011;3657;49.630;11.018;2023-09-12T00:12:25;31.90;;;30.40;;
7231;SDS011;3657;49.630;11.018;2023-09-12T00:14:51;32.43;;;30.97;;
7231;SDS011;3657;49.630;11.018;2023-09-12T00:17:18;32.20;;;30.80;;
7231;SDS011;3657;49.630;11.018;2023-09-12T00:19:45;32.90;;;31.40;;
7231;SDS011;3657;49.630;11.018;2023-09-12T00:22:12;32.17;;;30.67;;
7231;SDS011;3657;49.630;11.018;2023-09-12T00:24:38;32.73;;;31.03;;
7231;SDS011;3657;49.630;11.018;2023-09-12T00:27:05;31.50;;;29.80;;
7231;SDS011;3657;49.630;11.018;2023-09-12T00:29:33;32.63;;;31.13;;
7231;SDS011;3657;49.630;11.018;2023-09-12T00:32:00;31.27;;;29.83;;
7231;SDS011;3657;49.630;11.018;2023-09-12T00:34:27;31.60;;;30.17;;
7231;SDS011;3657;49.630;11.018;2023-09-12T00:36:53;31.37;;;30.07;;
7231;SDS011;3657;49.630;11.018;2023-09-12T00:39:20;32.77;;;31.33;;
7231;SDS011;3657;49.630;11.018;2023-09-12T00:41:47;33.57;;;31.87;;
7231;SDS011;3657;49.630;11.018;2023-09-12T00:44:13;32.07;;;30.67;;
7231;SDS011;3657;49.630;11.018;2023-09-12T00:46:41;31.23;;;29.80;;
7231;SDS011;3657;49.630;11.018;2023-09-12T00:49:10;31.97;;;30.37;;
7231;SDS011;3657;49.630;11.018;2023-09-12T00:51:39;33.63;;;32.13;;
7231;SDS011;3657;49.630;11.018;2023-09-12T00:54:08;32.47;;;30.97;;
7231;SDS011;3657;49.630;11.018;2023-09-12T00:56:35;31.50;;;30.00;;
7231;SDS011;3657;49.630;11.018;2023-09-12T00:59:02;32.70;;;31.20;;
7231;SDS011;3657;49.630;11.018;2023-09-12T01:01:30;33.13;;;31.53;;
7231;SDS011;3657;49.630;11.018;2023-09-12T01:03:59;32.13;;;30.63;;
7231;SDS011;3657;49.630;11.018;2023-09-12T01:06:26;31.70;;;30.23;;
7231;SDS011;3657;49.630;11.018;2023-09-12T01:08:56;31.67;;;30.27;;
7231;SDS011;3657;49.630;11.018;2023-09-12T01:11:22;31.23;;;29.83;;
7231;SDS011;3657;49.630;11.018;2023-09-12T01:13:50;31.77;;;30.37;;
7231;SDS011;3657;49.630;11.018;2023-09-12T01:16:17;31.97;;;30.50;;
7231;SDS011;3657;49.630;11.018;2023-09-12T01:18:44;31.97;;;30.53;;
7231;SDS011;3657;49.630;11.018;2023-09-12T01:24:30;31.40;;;30.00;;
7231;SDS011;3657;49.630;11.018;2023-09-12T01:27:20;29.93;;;28.73;;
7231;SDS011;3657;49.630;11.018;2023-09-12T01:29:49;31.67;;;30.07;;
7231;SDS011;3657;49.630;11.018;2023-09-12T01:32:19;32.93;;;31.37;;
7231;SDS011;3657;49.630;11.018;2023-09-12T01:34:46;32.47;;;30.87;;
7231;SDS011;3657;49.630;11.018;2023-09-12T01:37:13;32.83;;;31.23;;
7231;SDS011;3657;49.630;11.018;2023-09-12T01:39:40;30.23;;;29.13;;
7231;SDS011;3657;49.630;11.018;2023-09-12T01:42:07;31.73;;;30.13;;
7231;SDS011;3657;49.630;11.018;2023-09-12T01:44:39;30.30;;;29.00;;
7231;SDS011;3657;49.630;11.018;2023-09-12T01:47:07;30.57;;;29.17;;
7231;SDS011;3657;49.630;11.018;2023-09-12T01:49:34;29.93;;;28.63;;
7231;SDS011;3657;49.630;11.018;2023-09-12T01:52:03;29.60;;;28.40;;
7231;SDS011;3657;49.630;11.018;2023-09-12T01:54:30;31.00;;;29.70;;
7231;SDS011;3657;49.630;11.018;2023-09-12T01:56:58;29.37;;;28.17;;
7231;SDS011;3657;49.630;11.018;2023-09-12T01:59:25;32.60;;;31.30;;
7231;SDS011;3657;49.630;11.018;2023-09-12T02:01:53;32.10;;;30.73;;
7231;SDS011;3657;49.630;11.018;2023-09-12T02:04:20;31.97;;;30.57;;
7231;SDS011;3657;49.630;11.018;2023-09-12T02:06:47;31.33;;;30.03;;
7231;SDS011;3657;49.630;11.018;2023-09-12T02:09:14;31.23;;;29.83;;
7231;SDS011;3657;49.630;11.018;2023-09-12T02:11:41;31.90;;;30.60;;
7231;SDS011;3657;49.630;11.018;2023-09-12T02:14:07;31.93;;;30.53;;
7231;SDS011;3657;49.630;11.018;2023-09-12T02:16:35;29.23;;;28.20;;
7231;SDS011;3657;49.630;11.018;2023-09-12T02:19:04;30.93;;;29.70;;
7231;SDS011;3657;49.630;11.018;2023-09-12T02:21:31;31.50;;;30.30;;
7231;SDS011;3657;49.630;11.018;2023-09-12T02:23:58;30.90;;;29.70;;
7231;SDS011;3657;49.630;11.018;2023-09-12T02:26:24;30.47;;;29.37;;
7231;SDS011;3657;49.630;11.018;2023-09-12T02:28:51;31.30;;;30.10;;
7231;SDS011;3657;49.630;11.018;2023-09-12T02:31:18;29.97;;;28.77;;
7231;SDS011;3657;49.630;11.018;2023-09-12T02:33:44;30.13;;;29.03;;
7231;SDS011;3657;49.630;11.018;2023-09-12T02:36:12;29.63;;;28.53;;
7231;SDS011;3657;49.630;11.018;2023-09-12T02:38:39;29.43;;;28.33;;
7231;SDS011;3657;49.630;11.018;2023-09-12T02:41:06;28.27;;;27.23;;
7231;SDS011;3657;49.630;11.018;2023-09-12T02:43:32;29.00;;;28.00;;
7231;SDS011;3657;49.630;11.018;2023-09-12T02:45:59;28.67;;;27.47;;
7231;SDS011;3657;49.630;11.018;2023-09-12T02:48:26;27.40;;;26.50;;
7231;SDS011;3657;49.630;11.018;2023-09-12T02:50:53;30.17;;;29.00;;
7231;SDS011;3657;49.630;11.018;2023-09-12T02:53:21;28.27;;;27.20;;
7231;SDS011;3657;49.630;11.018;2023-09-12T02:55:48;28.80;;;27.60;;
7231;SDS011;3657;49.630;11.018;2023-09-12T02:58:14;28.20;;;27.20;;
7231;SDS011;3657;49.630;11.018;2023-09-12T03:00:41;28.67;;;27.57;;
7231;SDS011;3657;49.630;11.018;2023-09-12T03:03:08;28.03;;;26.83;;
7231;SDS011;3657;49.630;11.018;2023-09-12T03:05:35;28.20;;;27.20;;
7231;SDS011;3657;49.630;11.018;2023-09-12T03:08:01;28.80;;;27.70;;
7231;SDS011;3657;49.630;11.018;2023-09-12T03:10:30;26.57;;;25.73;;
7231;SDS011;3657;49.630;11.018;2023-09-12T03:12:57;27.73;;;26.70;;
7231;SDS011;3657;49.630;11.018;2023-09-12T03:15:23;28.27;;;27.37;;
7231;SDS011;3657;49.630;11.018;2023-09-12T03:17:50;28.80;;;27.73;;
7231;SDS011;3657;49.630;11.018;2023-09-12T03:20:17;29.03;;;28.03;;
7231;SDS011;3657;49.630;11.018;2023-09-12T03:22:44;29.00;;;27.77;;
7231;SDS011;3657;49.630;11.018;2023-09-12T03:25:11;28.67;;;27.67;;
7231;SDS011;3657;49.630;11.018;2023-09-12T03:27:40;28.27;;;27.17;;
7231;SDS011;3657;49.630;11.018;2023-09-12T03:30:07;29.03;;;27.93;;
7231;SDS011;3657;49.630;11.018;2023-09-12T03:32:34;28.67;;;27.50;;
7231;SDS011;3657;49.630;11.018;2023-09-12T03:35:01;29.20;;;28.00;;
7231;SDS011;3657;49.630;11.018;2023-09-12T03:37:28;28.93;;;27.80;;
7231;SDS011;3657;49.630;11.018;2023-09-12T03:39:54;28.60;;;27.50;;
7231;SDS011;3657;49.630;11.018;2023-09-12T03:42:21;27.33;;;26.43;;
7231;SDS011;3657;49.630;11.018;2023-09-12T03:44:49;28.40;;;27.33;;
7231;SDS011;3657;49.630;11.018;2023-09-12T03:47:16;28.93;;;27.93;;
7231;SDS011;3657;49.630;11.018;2023-09-12T03:49:42;29.23;;;27.93;;
7231;SDS011;3657;49.630;11.018;2023-09-12T03:52:09;29.50;;;28.20;;
7231;SDS011;3657;49.630;11.018;2023-09-12T03:54:36;28.20;;;27.30;;
7231;SDS011;3657;49.630;11.018;2023-09-12T03:57:02;29.47;;;28.40;;
7231;SDS011;3657;49.630;11.018;2023-09-12T03:59:30;29.60;;;28.30;;
7231;SDS011;3657;49.630;11.018;2023-09-12T04:01:58;29.50;;;28.40;;
7231;SDS011;3657;49.630;11.018;2023-09-12T04:04:24;28.00;;;27.00;;
7231;SDS011;3657;49.630;11.018;2023-09-12T04:06:51;29.43;;;28.23;;
7231;SDS011;3657;49.630;11.018;2023-09-12T04:09:18;28.53;;;27.47;;
7231;SDS011;3657;49.630;11.018;2023-09-12T04:11:44;28.33;;;27.33;;
7231;SDS011;3657;49.630;11.018;2023-09-12T04:14:13;29.17;;;27.97;;
7231;SDS011;3657;49.630;11.018;2023-09-12T04:16:40;28.37;;;27.47;;
7231;SDS011;3657;49.630;11.018;2023-09-12T04:19:08;28.57;;;27.43;;
7231;SDS011;3657;49.630;11.018;2023-09-12T04:21:35;26.87;;;25.87;;
7231;SDS011;3657;49.630;11.018;2023-09-12T04:24:01;25.33;;;24.53;;
7231;SDS011;3657;49.630;11.018;2023-09-12T04:26:28;28.63;;;27.57;;
7231;SDS011;3657;49.630;11.018;2023-09-12T04:28:55;28.30;;;27.30;;
7231;SDS011;3657;49.630;11.018;2023-09-12T04:31:21;27.13;;;26.23;;
7231;SDS011;3657;49.630;11.018;2023-09-12T04:33:50;28.50;;;27.53;;
7231;SDS011;3657;49.630;11.018;2023-09-12T04:36:18;26.60;;;25.53;;
7231;SDS011;3657;49.630;11.018;2023-09-12T04:38:45;28.70;;;27.70;;
7231;SDS011;3657;49.630;11.018;2023-09-12T04:41:12;27.30;;;26.20;;
7231;SDS011;3657;49.630;11.018;2023-09-12T04:43:41;27.27;;;26.37;;
7231;SDS011;3657;49.630;11.018;2023-09-12T04:46:09;27.90;;;26.70;;
7231;SDS011;3657;49.630;11.018;2023-09-12T04:48:36;30.63;;;29.37;;
7231;SDS011;3657;49.630;11.018;2023-09-12T04:51:03;30.60;;;29.27;;
7231;SDS011;3657;49.630;11.018;2023-09-12T04:53:31;29.67;;;28.47;;
7231;SDS011;3657;49.630;11.018;2023-09-12T04:56:00;28.13;;;27.03;;
7231;SDS011;3657;49.630;11.018;2023-09-12T04:58:31;29.67;;;28.43;;
7231;SDS011;3657;49.630;11.018;2023-09-12T05:00:58;30.50;;;29.20;;
7231;SDS011;3657;49.630;11.018;2023-09-12T05:03:24;30.20;;;28.80;;
7231;SDS011;3657;49.630;11.018;2023-09-12T05:05:51;30.53;;;29.23;;
7231;SDS011;3657;49.630;11.018;2023-09-12T05:08:18;29.63;;;28.33;;
7231;SDS011;3657;49.630;11.018;2023-09-12T05:10:46;29.80;;;28.63;;
7231;SDS011;3657;49.630;11.018;2023-09-12T05:13:13;31.53;;;30.33;;
7231;SDS011;3657;49.630;11.018;2023-09-12T05:15:40;29.87;;;28.77;;
7231;SDS011;3657;49.630;11.018;2023-09-12T05:18:07;29.50;;;28.23;;
7231;SDS011;3657;49.630;11.018;2023-09-12T05:20:34;29.93;;;28.83;;
7231;SDS011;3657;49.630;11.018;2023-09-12T05:23:01;30.00;;;28.90;;
7231;SDS011;3657;49.630;11.018;2023-09-12T05:25:27;30.13;;;28.93;;
7231;SDS011;3657;49.630;11.018;2023-09-12T05:27:56;29.80;;;28.67;;
7231;SDS011;3657;49.630;11.018;2023-09-12T05:30:23;29.43;;;28.33;;
7231;SDS011;3657;49.630;11.018;2023-09-12T05:32:49;29.10;;;28.07;;
7231;SDS011;3657;49.630;11.018;2023-09-12T05:35:16;29.53;;;28.47;;
7231;SDS011;3657;49.630;11.018;2023-09-12T05:37:43;27.20;;;26.20;;
7231;SDS011;3657;49.630;11.018;2023-09-12T05:40:10;28.33;;;27.33;;
7231;SDS011;3657;49.630;11.018;2023-09-12T05:42:36;29.87;;;28.43;;
7231;SDS011;3657;49.630;11.018;2023-09-12T05:45:05;27.93;;;26.93;;
7231;SDS011;3657;49.630;11.018;2023-09-12T05:47:32;29.03;;;27.67;;
7231;SDS011;3657;49.630;11.018;2023-09-12T05:49:59;28.73;;;27.57;;
7231;SDS011;3657;49.630;11.018;2023-09-12T05:52:26;28.93;;;27.83;;
7231;SDS011;3657;49.630;11.018;2023-09-12T05:54:52;29.47;;;28.27;;
7231;SDS011;3657;49.630;11.018;2023-09-12T05:57:19;27.90;;;26.90;;
7231;SDS011;3657;49.630;11.018;2023-09-12T05:59:46;28.43;;;27.23;;
7231;SDS011;3657;49.630;11.018;2023-09-12T06:02:14;29.63;;;28.43;;
7231;SDS011;3657;49.630;11.018;2023-09-12T06:04:41;28.90;;;27.73;;
7231;SDS011;3657;49.630;11.018;2023-09-12T06:07:07;29.40;;;28.10;;
7231;SDS011;3657;49.630;11.018;2023-09-12T06:09:34;28.63;;;27.53;;
7231;SDS011;3657;49.630;11.018;2023-09-12T06:12:01;28.90;;;27.90;;
7231;SDS011;3657;49.630;11.018;2023-09-12T06:14:28;27.50;;;26.50;;
7231;SDS011;3657;49.630;11.018;2023-09-12T06:16:54;31.10;;;29.70;;
7231;SDS011;3657;49.630;11.018;2023-09-12T06:19:22;27.57;;;26.47;;
7231;SDS011;3657;49.630;11.018;2023-09-12T06:21:49;28.50;;;27.20;;
7231;SDS011;3657;49.630;11.018;2023-09-12T06:24:19;27.53;;;26.43;;
7231;SDS011;3657;49.630;11.018;2023-09-12T06:26:46;27.47;;;26.57;;
7231;SDS011;3657;49.630;11.018;2023-09-12T06:29:13;28.13;;;27.13;;
7231;SDS011;3657;49.630;11.018;2023-09-12T06:31:41;28.33;;;27.13;;
7231;SDS011;3657;49.630;11.018;2023-09-12T06:34:08;28.13;;;26.90;;
7231;SDS011;3657;49.630;11.018;2023-09-12T06:36:37;27.87;;;26.67;;
7231;SDS011;3657;49.630;11.018;2023-09-12T06:39:06;28.87;;;27.67;;
7231;SDS011;3657;49.630;11.018;2023-09-12T06:41:33;27.87;;;26.67;;
7231;SDS011;3657;49.630;11.018;2023-09-12T06:44:00;28.67;;;27.33;;
7231;SDS011;3657;49.630;11.018;2023-09-12T06:46:28;28.40;;;27.23;;
7231;SDS011;3657;49.630;11.018;2023-09-12T06:48:54;28.60;;;27.23;;
7231;SDS011;3657;49.630;11.018;2023-09-12T06:51:23;31.93;;;30.50;;
7231;SDS011;3657;49.630;11.018;2023-09-12T06:53:52;27.93;;;26.40;;
7231;SDS011;3657;49.630;11.018;2023-09-12T06:56:18;29.07;;;27.87;;
7231;SDS011;3657;49.630;11.018;2023-09-12T06:58:46;29.80;;;28.50;;
7231;SDS011;3657;49.630;11.018;2023-09-12T07:01:13;29.17;;;27.77;;
7231;SDS011;3657;49.630;11.018;2023-09-12T07:03:40;28.57;;;27.37;;
7231;SDS011;3657;49.630;11.018;2023-09-12T07:06:06;29.83;;;28.37;;
7231;SDS011;3657;49.630;11.018;2023-09-12T07:08:33;30.10;;;28.80;;
7231;SDS011;3657;49.630;11.018;2023-09-12T07:11:03;28.53;;;27.23;;
7231;SDS011;3657;49.630;11.018;2023-09-12T07:13:31;30.30;;;28.43;;
7231;SDS011;3657;49.630;11.018;2023-09-12T07:15:58;29.43;;;28.00;;
7231;SDS011;3657;49.630;11.018;2023-09-12T07:18:28;39.67;;;37.23;;
7231;SDS011;3657;49.630;11.018;2023-09-12T07:20:58;32.17;;;30.73;;
7231;SDS011;3657;49.630;11.018;2023-09-12T07:23:25;40.53;;;37.97;;
7231;SDS011;3657;49.630;11.018;2023-09-12T07:25:52;29.87;;;28.57;;
7231;SDS011;3657;49.630;11.018;2023-09-12T07:28:21;28.70;;;27.60;;
7231;SDS011;3657;49.630;11.018;2023-09-12T07:30:48;28.83;;;27.33;;
7231;SDS011;3657;49.630;11.018;2023-09-12T07:33:15;35.63;;;33.53;;
7231;SDS011;3657;49.630;11.018;2023-09-12T07:35:42;29.77;;;28.33;;
7231;SDS011;3657;49.630;11.018;2023-09-12T07:38:08;29.43;;;28.23;;
7231;SDS011;3657;49.630;11.018;2023-09-12T07:40:35;33.93;;;32.20;;
7231;SDS011;3657;49.630;11.018;2023-09-12T07:43:02;36.20;;;34.33;;
7231;SDS011;3657;49.630;11.018;2023-09-12T07:45:30;31.07;;;29.53;;
7231;SDS011;3657;49.630;11.018;2023-09-12T07:48:02;30.03;;;28.80;;
7231;SDS011;3657;49.630;11.018;2023-09-12T07:50:29;29.57;;;28.13;;
7231;SDS011;3657;49.630;11.018;2023-09-12T07:52:55;28.57;;;27.47;;
7231;SDS011;3657;49.630;11.018;2023-09-12T07:55:22;29.07;;;27.77;;
7231;SDS011;3657;49.630;11.018;2023-09-12T07:57:49;29.57;;;28.37;;
7231;SDS011;3657;49.630;11.018;2023-09-12T08:00:15;29.97;;;28.53;;
7231;SDS011;3657;49.630;11.018;2023-09-12T08:02:44;27.50;;;26.43;;
7231;SDS011;3657;49.630;11.018;2023-09-12T08:05:10;27.50;;;26.23;;
7231;SDS011;3657;49.630;11.018;2023-09-12T08:07:37;26.50;;;25.60;;
7231;SDS011;3657;49.630;11.018;2023-09-12T08:10:04;30.13;;;28.83;;
7231;SDS011;3657;49.630;11.018;2023-09-12T08:12:31;33.60;;;31.57;;
7231;SDS011;3657;49.630;11.018;2023-09-12T08:14:58;33.60;;;32.10;;
7231;SDS011;3657;49.630;11.018;2023-09-12T08:17:25;31.83;;;30.23;;
7231;SDS011;3657;49.630;11.018;2023-09-12T08:19:53;33.63;;;32.03;;
7231;SDS011;3657;49.630;11.018;2023-09-12T08:22:20;30.63;;;29.37;;
7231;SDS011;3657;49.630;11.018;2023-09-12T08:24:47;28.53;;;27.33;;
7231;SDS011;3657;49.630;11.018;2023-09-12T08:27:14;44.43;;;41.50;;
7231;SDS011;3657;49.630;11.018;2023-09-12T08:29:41;31.67;;;30.27;;
7231;SDS011;3657;49.630;11.018;2023-09-12T08:32:09;42.73;;;40.20;;
7231;SDS011;3657;49.630;11.018;2023-09-12T08:34:36;37.77;;;35.50;;
7231;SDS011;3657;49.630;11.018;2023-09-12T08:37:04;42.20;;;39.60;;
7231;SDS011;3657;49.630;11.018;2023-09-12T08:39:39;32.07;;;30.67;;
7231;SDS011;3657;49.630;11.018;2023-09-12T08:42:08;30.63;;;29.33;;
7231;SDS011;3657;49.630;11.018;2023-09-12T08:44:38;29.13;;;27.90;;
7231;SDS011;3657;49.630;11.018;2023-09-12T08:47:06;28.40;;;27.40;;
7231;SDS011;3657;49.630;11.018;2023-09-12T08:49:34;25.73;;;24.83;;
7231;SDS011;3657;49.630;11.018;2023-09-12T08:52:02;28.67;;;27.57;;
7231;SDS011;3657;49.630;11.018;2023-09-12T08:54:30;27.97;;;26.90;;
7231;SDS011;3657;49.630;11.018;2023-09-12T08:56:57;26.57;;;25.50;;
7231;SDS011;3657;49.630;11.018;2023-09-12T08:59:24;26.63;;;25.63;;
7231;SDS011;3657;49.630;11.018;2023-09-12T09:01:52;27.53;;;26.43;;
7231;SDS011;3657;49.630;11.018;2023-09-12T09:04:22;41.77;;;39.03;;
7231;SDS011;3657;49.630;11.018;2023-09-12T09:06:51;37.23;;;35.33;;
7231;SDS011;3657;49.630;11.018;2023-09-12T09:09:20;26.40;;;25.40;;
7231;SDS011;3657;49.630;11.018;2023-09-12T09:11:50;28.47;;;27.37;;
7231;SDS011;3657;49.630;11.018;2023-09-12T09:14:17;31.57;;;30.10;;
7231;SDS011;3657;49.630;11.018;2023-09-12T09:16:43;37.70;;;35.33;;
7231;SDS011;3657;49.630;11.018;2023-09-12T09:19:10;37.90;;;35.27;;
7231;SDS011;3657;49.630;11.018;2023-09-12T09:21:37;39.40;;;36.57;;
7231;SDS011;3657;49.630;11.018;2023-09-12T09:24:06;40.13;;;37.33;;
7231;SDS011;3657;49.630;11.018;2023-09-12T09:26:43;35.43;;;33.53;;
7231;SDS011;3657;49.630;11.018;2023-09-12T09:29:14;36.50;;;34.47;;
7231;SDS011;3657;49.630;11.018;2023-09-12T09:31:42;39.47;;;37.17;;
7231;SDS011;3657;49.630;11.018;2023-09-12T09:34:11;30.80;;;29.20;;
7231;SDS011;3657;49.630;11.018;2023-09-12T09:36:42;39.87;;;37.37;;
7231;SDS011;3657;49.630;11.018;2023-09-12T09:39:09;27.80;;;26.60;;
7231;SDS011;3657;49.630;11.018;2023-09-12T09:41:37;29.73;;;28.40;;
7231;SDS011;3657;49.630;11.018;2023-09-12T09:44:04;33.57;;;31.97;;
7231;SDS011;3657;49.630;11.018;2023-09-12T09:46:33;29.40;;;28.13;;
7231;SDS011;3657;49.630;11.018;2023-09-12T09:49:00;29.40;;;28.10;;
7231;SDS011;3657;49.630;11.018;2023-09-12T09:51:27;30.23;;;28.83;;
7231;SDS011;3657;49.630;11.018;2023-09-12T09:53:56;29.43;;;28.13;;
7231;SDS011;3657;49.630;11.018;2023-09-12T09:56:25;32.73;;;30.97;;
7231;SDS011;3657;49.630;11.018;2023-09-12T09:58:52;29.90;;;28.17;;
7231;SDS011;3657;49.630;11.018;2023-09-12T10:01:20;28.40;;;27.30;;
7231;SDS011;3657;49.630;11.018;2023-09-12T10:03:53;28.50;;;27.27;;
7231;SDS011;3657;49.630;11.018;2023-09-12T10:06:28;27.70;;;26.43;;
7231;SDS011;3657;49.630;11.018;2023-09-12T10:08:55;31.97;;;30.37;;
7231;SDS011;3657;49.630;11.018;2023-09-12T10:11:24;29.53;;;28.07;;
7231;SDS011;3657;49.630;11.018;2023-09-12T10:13:55;26.40;;;25.30;;
7231;SDS011;3657;49.630;11.018;2023-09-12T10:16:23;29.42;;;28.05;;
7231;SDS011;3657;49.630;11.018;2023-09-12T10:18:55;27.85;;;26.60;;
7231;SDS011;3657;49.630;11.018;2023-09-12T10:21:27;28.77;;;27.55;;
7231;SDS011;3657;49.630;11.018;2023-09-12T10:23:56;31.85;;;30.27;;
7231;SDS011;3657;49.630;11.018;2023-09-12T10:26:25;28.98;;;27.63;;
7231;SDS011;3657;49.630;11.018;2023-09-12T10:28:53;27.33;;;26.30;;
7231;SDS011;3657;49.630;11.018;2023-09-12T10:31:21;27.40;;;26.25;;
7231;SDS011;3657;49.630;11.018;2023-09-12T10:33:50;28.02;;;26.92;;
7231;SDS011;3657;49.630;11.018;2023-09-12T10:36:20;27.30;;;26.23;;
7231;SDS011;3657;49.630;11.018;2023-09-12T10:38:48;27.80;;;26.27;;
7231;SDS011;3657;49.630;11.018;2023-09-12T10:41:16;27.33;;;26.13;;
7231;SDS011;3657;49.630;11.018;2023-09-12T10:43:45;26.73;;;25.25;;
7231;SDS011;3657;49.630;11.018;2023-09-12T10:46:17;26.55;;;25.55;;
7231;SDS011;3657;49.630;11.018;2023-09-12T10:48:44;29.80;;;28.20;;
7231;SDS011;3657;49.630;11.018;2023-09-12T10:51:11;28.58;;;27.38;;
7231;SDS011;3657;49.630;11.018;2023-09-12T10:53:45;30.25;;;28.27;;
7231;SDS011;3657;49.630;11.018;2023-09-12T10:56:16;24.42;;;23.60;;
7231;SDS011;3657;49.630;11.018;2023-09-12T11:01:41;27.80;;;26.38;;
7231;SDS011;3657;49.630;11.018;2023-09-12T11:07:16;25.00;;;24.10;;
7231;SDS011;3657;49.630;11.018;2023-09-12T11:10:17;27.27;;;26.05;;
7231;SDS011;3657;49.630;11.018;2023-09-12T11:12:45;25.67;;;24.73;;
7231;SDS011;3657;49.630;11.018;2023-09-12T11:15:12;27.60;;;26.10;;
7231;SDS011;3657;49.630;11.018;2023-09-12T11:17:40;25.40;;;24.33;;
7231;SDS011;3657;49.630;11.018;2023-09-12T11:20:08;27.20;;;25.95;;
7231;SDS011;3657;49.630;11.018;2023-09-12T11:22:36;26.52;;;25.40;;
7231;SDS011;3657;49.630;11.018;2023-09-12T11:25:05;25.45;;;24.55;;
7231;SDS011;3657;49.630;11.018;2023-09-12T11:27:45;23.85;;;22.88;;
7231;SDS011;3657;49.630;11.018;2023-09-12T11:30:28;26.00;;;24.85;;
7231;SDS011;3657;49.630;11.018;2023-09-12T11:32:56;24.88;;;23.77;;
7231;SDS011;3657;49.630;11.018;2023-09-12T11:35:24;24.88;;;23.63;;
7231;SDS011;3657;49.630;11.018;2023-09-12T11:37:52;26.67;;;25.48;;
7231;SDS011;3657;49.630;11.018;2023-09-12T11:40:23;24.83;;;24.02;;
7231;SDS011;3657;49.630;11.018;2023-09-12T11:42:51;25.00;;;23.67;;
7231;SDS011;3657;49.630;11.018;2023-09-12T11:45:19;26.55;;;25.58;;
7231;SDS011;3657;49.630;11.018;2023-09-12T11:47:47;22.80;;;21.90;;
7231;SDS011;3657;49.630;11.018;2023-09-12T11:50:29;24.35;;;23.05;;
7231;SDS011;3657;49.630;11.018;2023-09-12T11:53:00;24.25;;;23.02;;
7231;SDS011;3657;49.630;11.018;2023-09-12T11:55:28;24.50;;;23.30;;
7231;SDS011;3657;49.630;11.018;2023-09-12T11:57:57;24.52;;;23.08;;
7231;SDS011;3657;49.630;11.018;2023-09-12T12:00:24;23.50;;;22.70;;
7231;SDS011;3657;49.630;11.018;2023-09-12T12:02:51;23.65;;;22.85;;
7231;SDS011;3657;49.630;11.018;2023-09-12T12:05:18;24.30;;;23.08;;
7231;SDS011;3657;49.630;11.018;2023-09-12T12:07:46;23.00;;;22.00;;
7231;SDS011;3657;49.630;11.018;2023-09-12T12:10:13;21.90;;;21.00;;
7231;SDS011;3657;49.630;11.018;2023-09-12T12:12:43;23.50;;;22.48;;
7231;SDS011;3657;49.630;11.018;2023-09-12T12:15:10;24.48;;;23.17;;
7231;SDS011;3657;49.630;11.018;2023-09-12T12:17:40;22.52;;;21.83;;
7231;SDS011;3657;49.630;11.018;2023-09-12T12:20:07;24.73;;;23.65;;
7231;SDS011;3657;49.630;11.018;2023-09-12T12:22:35;23.83;;;22.75;;
7231;SDS011;3657;49.630;11.018;2023-09-12T12:25:05;25.30;;;24.17;;
7231;SDS011;3657;49.630;11.018;2023-09-12T12:27:34;22.77;;;21.70;;
7231;SDS011;3657;49.630;11.018;2023-09-12T12:30:03;26.38;;;24.92;;
7231;SDS011;3657;49.630;11.018;2023-09-12T12:32:32;23.10;;;22.30;;
7231;SDS011;3657;49.630;11.018;2023-09-12T12:34:58;23.52;;;22.52;;
7231;SDS011;3657;49.630;11.018;2023-09-12T12:37:28;26.35;;;24.52;;
7231;SDS011;3657;49.630;11.018;2023-09-12T12:39:56;25.33;;;23.88;;
7231;SDS011;3657;49.630;11.018;2023-09-12T12:42:23;22.35;;;21.35;;
7231;SDS011;3657;49.630;11.018;2023-09-12T12:44:52;23.60;;;21.95;;
7231;SDS011;3657;49.630;11.018;2023-09-12T12:47:21;24.15;;;23.00;;
7231;SDS011;3657;49.630;11.018;2023-09-12T12:49:50;24.10;;;22.90;;
7231;SDS011;3657;49.630;11.018;2023-09-12T12:52:21;22.83;;;21.13;;
7231;SDS011;3657;49.630;11.018;2023-09-12T12:54:48;24.05;;;22.75;;
7231;SDS011;3657;49.630;11.018;2023-09-12T12:57:18;25.70;;;24.20;;
7231;SDS011;3657;49.630;11.018;2023-09-12T12:59:45;25.17;;;23.23;;
7231;SDS011;3657;49.630;11.018;2023-09-12T13:02:12;23.05;;;21.85;;
7231;SDS011;3657;49.630;11.018;2023-09-12T13:04:40;25.38;;;23.90;;
7231;SDS011;3657;49.630;11.018;2023-09-12T13:07:07;23.98;;;22.63;;
7231;SDS011;3657;49.630;11.018;2023-09-12T13:09:35;22.27;;;21.48;;
7231;SDS011;3657;49.630;11.018;2023-09-12T13:12:03;23.80;;;22.23;;
7231;SDS011;3657;49.630;11.018;2023-09-12T13:14:31;23.15;;;22.27;;
7231;SDS011;3657;49.630;11.018;2023-09-12T13:16:57;23.85;;;22.92;;
7231;SDS011;3657;49.630;11.018;2023-09-12T13:19:24;24.15;;;22.85;;
7231;SDS011;3657;49.630;11.018;2023-09-12T13:21:53;23.80;;;22.77;;
7231;SDS011;3657;49.630;11.018;2023-09-12T13:24:19;25.23;;;23.95;;
7231;SDS011;3657;49.630;11.018;2023-09-12T13:26:46;21.60;;;20.75;;
7231;SDS011;3657;49.630;11.018;2023-09-12T13:29:13;24.27;;;22.95;;
7231;SDS011;3657;49.630;11.018;2023-09-12T13:31:39;22.85;;;21.92;;
7231;SDS011;3657;49.630;11.018;2023-09-12T13:34:06;23.92;;;22.92;;
7231;SDS011;3657;49.630;11.018;2023-09-12T13:36:33;23.67;;;22.42;;
7231;SDS011;3657;49.630;11.018;2023-09-12T13:39:01;23.10;;;22.10;;
7231;SDS011;3657;49.630;11.018;2023-09-12T13:41:29;21.77;;;20.88;;
7231;SDS011;3657;49.630;11.018;2023-09-12T13:43:55;24.15;;;23.08;;
7231;SDS011;3657;49.630;11.018;2023-09-12T13:46:22;21.92;;;21.20;;
7231;SDS011;3657;49.630;11.018;2023-09-12T13:48:49;22.77;;;21.60;;
7231;SDS011;3657;49.630;11.018;2023-09-12T13:51:15;24.38;;;23.05;;
7231;SDS011;3657;49.630;11.018;2023-09-12T13:53:42;24.00;;;22.73;;
7231;SDS011;3657;49.630;11.018;2023-09-12T13:56:10;24.63;;;23.73;;
7231;SDS011;3657;49.630;11.018;2023-09-12T13:58:37;23.98;;;22.95;;
7231;SDS011;3657;49.630;11.018;2023-09-12T14:01:04;24.65;;;23.30;;
7231;SDS011;3657;49.630;11.018;2023-09-12T14:03:30;24.25;;;22.90;;
7231;SDS011;3657;49.630;11.018;2023-09-12T14:05:57;24.58;;;23.67;;
7231;SDS011;3657;49.630;11.018;2023-09-12T14:08:24;23.48;;;22.65;;
7231;SDS011;3657;49.630;11.018;2023-09-12T14:10:50;28.73;;;27.05;;
7231;SDS011;3657;49.630;11.018;2023-09-12T14:13:19;26.08;;;24.83;;
7231;SDS011;3657;49.630;11.018;2023-09-12T14:15:45;24.63;;;23.52;;
7231;SDS011;3657;49.630;11.018;2023-09-12T14:18:12;25.30;;;24.05;;
7231;SDS011;3657;49.630;11.018;2023-09-12T14:20:39;24.25;;;23.05;;
7231;SDS011;3657;49.630;11.018;2023-09-12T14:23:06;21.60;;;20.80;;
7231;SDS011;3657;49.630;11.018;2023-09-12T14:25:32;24.98;;;23.65;;
7231;SDS011;3657;49.630;11.018;2023-09-12T14:27:59;25.17;;;23.80;;
7231;SDS011;3657;49.630;11.018;2023-09-12T14:30:27;25.27;;;24.05;;
7231;SDS011;3657;49.630;11.018;2023-09-12T14:33:00;26.48;;;25.30;;
7231;SDS011;3657;49.630;11.018;2023-09-12T14:35:27;23.45;;;22.45;;
7231;SDS011;3657;49.630;11.018;2023-09-12T14:37:53;24.48;;;23.48;;
7231;SDS011;3657;49.630;11.018;2023-09-12T14:40:20;26.98;;;25.70;;
7231;SDS011;3657;49.630;11.018;2023-09-12T14:42:47;25.20;;;24.00;;
7231;SDS011;3657;49.630;11.018;2023-09-12T14:45:14;24.42;;;23.52;;